createdAt,value
2018-02-16T00:00:58.084Z,101156.09
2018-02-16T00:03:27.463Z,101150.92
2018-02-16T00:05:56.351Z,101156.77
2018-02-16T00:08:24.827Z,101158.03
2018-02-16T00:10:53.316Z,101162.08
2018-02-16T00:13:21.743Z,101162.70
2018-02-16T00:15:50.229Z,101165.48
2018-02-16T00:18:18.850Z,101163.73
2018-02-16T00:20:47.284Z,101171.30
2018-02-16T00:23:15.702Z,101170.41
2018-02-16T00:25:44.626Z,101170.81
2018-02-16T00:28:13.143Z,101174.72
2018-02-16T00:30:41.821Z,101181.34
2018-02-16T00:33:10.633Z,101193.77
2018-02-16T00:35:39.204Z,101181.91
2018-02-16T00:38:08.046Z,101181.91
2018-02-16T00:40:38.044Z,101183.66
2018-02-16T00:43:07.224Z,101180.51
2018-02-16T00:45:36.275Z,101188.94
2018-02-16T00:48:06.544Z,101183.61
2018-02-16T00:50:35.361Z,101189.86
2018-02-16T00:53:04.363Z,101188.05
2018-02-16T00:55:33.920Z,101192.39
2018-02-16T00:58:02.539Z,101192.06
2018-02-16T01:00:31.382Z,101195.97
2018-02-16T01:03:00.348Z,101202.19
2018-02-16T01:05:28.944Z,101200.44
2018-02-16T01:07:58.380Z,101200.55
2018-02-16T01:10:27.061Z,101206.87
2018-02-16T01:12:56.795Z,101210.94
2018-02-16T01:15:25.481Z,101206.20
2018-02-16T01:17:54.070Z,101217.13
2018-02-16T01:20:23.199Z,101222.95
2018-02-16T01:22:51.874Z,101224.70
2018-02-16T01:25:20.639Z,101232.73
2018-02-16T01:27:50.512Z,101228.05
2018-02-16T01:30:21.012Z,101237.28
2018-02-16T01:32:50.057Z,101242.18
2018-02-16T01:35:18.689Z,101238.65
2018-02-16T01:37:47.275Z,101239.64
2018-02-16T01:40:16.057Z,101241.82
2018-02-16T01:42:44.746Z,101246.56
2018-02-16T01:45:13.504Z,101251.05
2018-02-16T01:47:42.447Z,101250.14
2018-02-16T01:50:11.322Z,101253.34
2018-02-16T01:52:40.377Z,101252.98
2018-02-16T01:55:11.562Z,101255.14
2018-02-16T01:57:40.968Z,101261.25
2018-02-16T02:00:09.839Z,101268.30
2018-02-16T02:02:39.414Z,101267.41
2018-02-16T02:05:08.268Z,101256.30
2018-02-16T02:07:37.503Z,101259.33
2018-02-16T02:10:06.448Z,101258.10
2018-02-16T02:12:36.025Z,101263.86
2018-02-16T02:15:05.593Z,101272.66
2018-02-16T02:17:36.134Z,101270.48
2018-02-16T02:20:04.567Z,101273.12
2018-02-16T02:22:33.041Z,101275.70
2018-02-16T02:25:02.004Z,101283.64
2018-02-16T02:27:30.456Z,101273.50
2018-02-16T02:29:58.880Z,101285.70
2018-02-16T02:32:28.277Z,101287.52
2018-02-16T02:34:56.758Z,101283.52
2018-02-16T02:37:25.239Z,101289.63
2018-02-16T02:39:54.276Z,101293.06
2018-02-16T02:42:22.743Z,101290.50
2018-02-16T02:44:51.228Z,101296.26
2018-02-16T02:47:20.508Z,101296.80
2018-02-16T02:49:48.933Z,101298.89
2018-02-16T02:52:17.498Z,101298.36
2018-02-16T02:54:45.997Z,101309.34
2018-02-16T02:57:14.427Z,101310.35
2018-02-16T02:59:42.891Z,101312.56
2018-02-16T03:02:12.153Z,101317.98
2018-02-16T03:04:40.628Z,101319.16
2018-02-16T03:07:09.154Z,101329.30
2018-02-16T03:09:37.965Z,101335.47
2018-02-16T03:12:06.418Z,101331.08
2018-02-16T03:14:34.963Z,101327.83
2018-02-16T03:17:04.731Z,101333.88
2018-02-16T03:19:33.211Z,101331.70
2018-02-16T03:22:01.845Z,101333.85
2018-02-16T03:24:32.605Z,101339.63
2018-02-16T03:27:01.205Z,101334.53
2018-02-16T03:29:29.695Z,101340.45
2018-02-16T03:31:58.352Z,101341.68
2018-02-16T03:34:26.926Z,101339.11
2018-02-16T03:36:55.798Z,101352.50
2018-02-16T03:39:25.774Z,101358.93
2018-02-16T03:41:54.186Z,101352.75
2018-02-16T03:44:22.635Z,101363.80
2018-02-16T03:46:51.805Z,101360.44
2018-02-16T03:49:20.225Z,101361.17
2018-02-16T03:51:48.678Z,101361.53
2018-02-16T03:54:18.253Z,101359.98
2018-02-16T03:56:46.761Z,101365.36
2018-02-16T03:59:15.185Z,101364.11
2018-02-16T04:01:43.649Z,101367.39
2018-02-16T04:04:12.113Z,101369.46
2018-02-16T04:06:40.590Z,101371.30
2018-02-16T04:09:09.064Z,101374.72
2018-02-16T04:11:37.980Z,101371.61
2018-02-16T04:14:06.778Z,101375.04
2018-02-16T04:16:35.297Z,101378.58
2018-02-16T04:19:03.881Z,101377.41
2018-02-16T04:21:33.245Z,101376.48
2018-02-16T04:24:02.726Z,101379.10
2018-02-16T04:26:31.230Z,101385.77
2018-02-16T04:28:59.652Z,101387.02
2018-02-16T04:31:28.118Z,101382.01
2018-02-16T04:33:56.604Z,101382.05
2018-02-16T04:36:25.086Z,101394.23
2018-02-16T04:38:54.348Z,101388.48
2018-02-16T04:41:22.795Z,101397.47
2018-02-16T04:43:51.844Z,101402.22
2018-02-16T04:46:20.310Z,101403.02
2018-02-16T04:48:48.727Z,101405.17
2018-02-16T04:51:17.292Z,101410.84
2018-02-16T04:53:45.797Z,101407.44
2018-02-16T04:56:14.200Z,101408.66
2018-02-16T04:58:43.242Z,101411.17
2018-02-16T05:01:11.936Z,101407.05
2018-02-16T05:03:40.342Z,101410.29
2018-02-16T05:06:08.759Z,101406.75
2018-02-16T05:08:37.422Z,101407.14
2018-02-16T05:11:05.899Z,101413.70
2018-02-16T05:13:34.466Z,101407.82
2018-02-16T05:16:03.775Z,101403.79
2018-02-16T05:18:32.261Z,101414.30
2018-02-16T05:21:00.698Z,101405.80
2018-02-16T05:23:30.195Z,101413.27
2018-02-16T05:25:58.667Z,101414.28
2018-02-16T05:28:27.086Z,101411.69
2018-02-16T05:30:55.603Z,101423.56
2018-02-16T05:33:24.060Z,101418.08
2018-02-16T05:35:52.526Z,101429.22
2018-02-16T05:38:21.733Z,101424.28
2018-02-16T05:40:50.166Z,101431.58
2018-02-16T05:43:18.726Z,101431.02
2018-02-16T05:45:47.310Z,101431.50
2018-02-16T05:48:15.752Z,101432.09
2018-02-16T05:50:44.572Z,101433.30
2018-02-16T05:53:13.767Z,101436.84
2018-02-16T05:55:42.201Z,101440.72
2018-02-16T05:58:10.827Z,101448.84
2018-02-16T06:00:39.471Z,101453.43
2018-02-16T06:03:07.959Z,101450.09
2018-02-16T06:05:36.924Z,101459.63
2018-02-16T06:08:05.670Z,101459.38
2018-02-16T06:10:34.260Z,101460.66
2018-02-16T06:13:02.870Z,101466.74
2018-02-16T06:15:31.508Z,101466.19
2018-02-16T06:18:00.137Z,101469.23
2018-02-16T06:20:28.658Z,101473.12
2018-02-16T06:23:00.994Z,101474.52
2018-02-16T06:25:29.433Z,101468.67
2018-02-16T06:27:58.030Z,101471.59
2018-02-16T06:30:26.541Z,101475.56
2018-02-16T06:32:54.965Z,101478.95
2018-02-16T06:35:23.394Z,101479.54
2018-02-16T06:37:52.847Z,101493.41
2018-02-16T06:40:22.299Z,101493.77
2018-02-16T06:42:50.800Z,101492.56
2018-02-16T06:45:19.325Z,101500.85
2018-02-16T06:47:47.942Z,101505.71
2018-02-16T06:50:16.476Z,101515.72
2018-02-16T06:52:45.066Z,101515.13
2018-02-16T06:55:13.558Z,101522.55
2018-02-16T06:57:42.022Z,101527.23
2018-02-16T07:00:10.625Z,101520.00
2018-02-16T07:02:39.308Z,101520.78
2018-02-16T07:05:07.782Z,101524.42
2018-02-16T07:07:37.292Z,101525.55
2018-02-16T07:10:08.292Z,101533.95
2018-02-16T07:12:36.961Z,101528.86
2018-02-16T07:15:05.508Z,101544.70
2018-02-16T07:17:34.255Z,101534.50
2018-02-16T07:22:31.021Z,101540.86
2018-02-16T07:24:59.623Z,101546.11
2018-02-16T07:27:28.047Z,101551.38
2018-02-16T07:29:56.537Z,101549.87
2018-02-16T07:32:24.959Z,101554.27
2018-02-16T07:34:53.369Z,101560.61
2018-02-16T07:37:22.921Z,101556.84
2018-02-16T07:39:51.385Z,101567.34
2018-02-16T07:42:19.803Z,101565.32
2018-02-16T07:44:49.045Z,101572.09
2018-02-16T07:47:17.518Z,101574.11
2018-02-16T07:49:45.920Z,101576.19
2018-02-16T07:52:14.469Z,101576.14
2018-02-16T07:54:43.130Z,101578.98
2018-02-16T07:57:11.932Z,101580.13
2018-02-16T07:59:40.656Z,101581.41
2018-02-16T08:02:09.214Z,101582.63
2018-02-16T08:04:37.689Z,101594.72
2018-02-16T08:07:06.403Z,101595.78
2018-02-16T08:09:35.015Z,101589.27
2018-02-16T08:12:03.536Z,101592.97
2018-02-16T08:14:32.221Z,101582.13
2018-02-16T08:17:00.700Z,101594.16
2018-02-16T08:19:29.199Z,101600.40
2018-02-16T08:21:57.668Z,101594.50
2018-02-16T08:24:26.152Z,101597.22
2018-02-16T08:26:54.573Z,101606.20
2018-02-16T08:29:23.428Z,101612.63
2018-02-16T08:31:51.868Z,101603.79
2018-02-16T08:34:20.326Z,101616.86
2018-02-16T08:36:48.819Z,101612.42
2018-02-16T08:39:17.251Z,101615.31
2018-02-16T08:41:45.778Z,101627.83
2018-02-16T08:44:14.767Z,101633.95
2018-02-16T08:46:43.385Z,101640.88
2018-02-16T08:49:12.074Z,101636.72
2018-02-16T08:51:40.919Z,101634.65
2018-02-16T08:54:09.745Z,101633.75
2018-02-16T08:56:39.336Z,101647.20
2018-02-16T08:59:09.060Z,101646.38
2018-02-16T09:01:37.620Z,101633.73
2018-02-16T09:04:06.137Z,101645.45
2018-02-16T09:06:34.950Z,101651.61
2018-02-16T09:09:03.615Z,101660.09
2018-02-16T09:11:32.198Z,101650.42
2018-02-16T09:14:00.793Z,101651.27
2018-02-16T09:16:29.282Z,101651.70
2018-02-16T09:18:58.509Z,101661.70
2018-02-16T09:21:27.500Z,101660.57
2018-02-16T09:23:55.925Z,101666.42
2018-02-16T09:26:24.361Z,101666.60
2018-02-16T09:28:52.896Z,101672.13
2018-02-16T09:31:21.355Z,101681.13
2018-02-16T09:33:49.808Z,101683.12
2018-02-16T09:36:18.929Z,101674.94
2018-02-16T09:38:47.419Z,101683.02
2018-02-16T09:41:15.889Z,101694.44
2018-02-16T09:43:44.424Z,101689.45
2018-02-16T09:46:13.834Z,101699.50
2018-02-16T09:48:43.888Z,101694.97
2018-02-16T09:51:13.488Z,101701.14
2018-02-16T09:53:42.064Z,101702.48
2018-02-16T09:56:14.509Z,101709.83
2018-02-16T09:58:43.320Z,101712.26
2018-02-16T10:01:12.131Z,101715.08
2018-02-16T10:03:41.245Z,101715.55
2018-02-16T10:06:09.876Z,101712.34
2018-02-16T10:08:38.551Z,101723.41
2018-02-16T10:11:07.205Z,101718.72
2018-02-16T10:13:35.774Z,101721.60
2018-02-16T10:16:04.592Z,101724.70
2018-02-16T10:18:33.239Z,101719.75
2018-02-16T10:21:02.231Z,101724.41
2018-02-16T10:23:30.684Z,101733.59
2018-02-16T10:26:01.181Z,101729.44
2018-02-16T10:28:29.770Z,101730.02
2018-02-16T10:30:58.207Z,101734.87
2018-02-16T10:33:26.785Z,101732.96
2018-02-16T10:35:55.249Z,101738.75
2018-02-16T10:38:24.720Z,101735.44
2018-02-16T10:40:53.343Z,101738.70
2018-02-16T10:43:21.918Z,101746.45
2018-02-16T10:45:50.374Z,101752.02
2018-02-16T10:48:18.925Z,101751.23
2018-02-16T10:50:48.100Z,101748.02
2018-02-16T10:53:16.560Z,101753.52
2018-02-16T10:55:45.403Z,101756.50
2018-02-16T10:58:13.853Z,101761.93
2018-02-16T11:00:48.349Z,101767.34
2018-02-16T11:03:23.412Z,101771.20
2018-02-16T11:05:53.761Z,101773.38
2018-02-16T11:11:23.694Z,101767.25
2018-02-16T11:13:52.125Z,101772.16
2018-02-16T11:16:20.569Z,101769.40
2018-02-16T11:18:49.038Z,101769.45
2018-02-16T11:21:18.330Z,101783.99
2018-02-16T11:23:47.299Z,101782.37
2018-02-16T11:26:15.833Z,101785.91
2018-02-16T11:28:44.306Z,101784.86
2018-02-16T11:31:12.822Z,101777.63
2018-02-16T11:33:42.132Z,101783.73
2018-02-16T11:36:10.594Z,101777.27
2018-02-16T11:38:39.132Z,101797.64
2018-02-16T11:41:07.799Z,101789.16
2018-02-16T11:43:36.518Z,101796.96
2018-02-16T11:46:05.409Z,101804.84
2018-02-16T11:48:33.989Z,101806.89
2018-02-16T11:51:02.669Z,101814.61
2018-02-16T11:53:31.664Z,101813.37
2018-02-16T11:56:00.966Z,101818.65
2018-02-16T11:58:29.379Z,101829.20
2018-02-16T12:00:57.803Z,101821.61
2018-02-16T12:03:26.427Z,101824.38
2018-02-16T12:05:54.894Z,101823.45
2018-02-16T12:08:23.330Z,101829.22
2018-02-16T12:10:52.645Z,101827.56
2018-02-16T12:13:21.250Z,101836.59
2018-02-16T12:15:49.785Z,101841.78
2018-02-16T12:18:18.312Z,101843.91
2018-02-16T12:20:46.853Z,101848.86
2018-02-16T12:23:15.325Z,101835.04
2018-02-16T12:25:43.914Z,101836.27
2018-02-16T12:28:12.601Z,101833.14
2018-02-16T12:30:42.278Z,101841.05
2018-02-16T12:33:11.066Z,101845.91
2018-02-16T12:35:39.583Z,101841.88
2018-02-16T12:38:08.067Z,101845.80
2018-02-16T12:40:36.850Z,101855.05
2018-02-16T12:43:05.454Z,101860.79
2018-02-16T12:45:34.085Z,101852.28
2018-02-16T12:48:03.402Z,101854.77
2018-02-16T12:50:31.899Z,101864.54
2018-02-16T12:53:00.351Z,101867.45
2018-02-16T12:55:29.706Z,101859.50
2018-02-16T12:57:58.191Z,101867.81
2018-02-16T13:00:26.644Z,101862.70
2018-02-16T13:02:55.481Z,101863.64
2018-02-16T13:05:23.997Z,101863.84
2018-02-16T13:07:52.448Z,101865.33
2018-02-16T13:10:21.973Z,101857.87
2018-02-16T13:12:50.452Z,101865.77
2018-02-16T13:15:18.889Z,101857.28
2018-02-16T13:17:48.318Z,101870.61
2018-02-16T13:20:16.790Z,101873.86
2018-02-16T13:22:45.201Z,101868.44
2018-02-16T13:25:13.863Z,101875.62
2018-02-16T13:27:42.374Z,101863.02
2018-02-16T13:30:10.937Z,101866.98
2018-02-16T13:32:39.444Z,101876.47
2018-02-16T13:35:09.021Z,101876.66
2018-02-16T13:37:37.658Z,101878.32
2018-02-16T13:40:07.221Z,101879.07
2018-02-16T13:42:35.863Z,101883.85
2018-02-16T13:45:04.368Z,101883.48
2018-02-16T13:47:33.515Z,101889.92
2018-02-16T13:50:02.667Z,101888.22
2018-02-16T13:52:31.156Z,101891.47
2018-02-16T13:54:59.677Z,101892.39
2018-02-16T13:57:28.089Z,101888.47
2018-02-16T13:59:56.570Z,101893.39
2018-02-16T14:02:25.084Z,101893.80
2018-02-16T14:04:53.639Z,101896.82
2018-02-16T14:07:22.363Z,101895.77
2018-02-16T14:09:50.868Z,101895.86
2018-02-16T14:12:19.352Z,101900.92
2018-02-16T14:14:47.937Z,101901.30
2018-02-16T14:17:16.457Z,101906.36
2018-02-16T14:19:44.968Z,101911.27
2018-02-16T14:22:13.516Z,101916.98
2018-02-16T14:24:42.892Z,101915.44
2018-02-16T14:27:11.546Z,101914.75
2018-02-16T14:29:40.072Z,101915.66
2018-02-16T14:32:08.683Z,101921.14
2018-02-16T14:34:37.185Z,101917.09
2018-02-16T14:37:05.770Z,101920.39
2018-02-16T14:39:34.658Z,101923.52
2018-02-16T14:42:04.377Z,101928.25
2018-02-16T14:44:33.025Z,101923.80
2018-02-16T14:47:01.772Z,101923.20
2018-02-16T14:49:30.217Z,101938.87
2018-02-16T14:51:58.651Z,101945.87
2018-02-16T14:54:27.922Z,101946.22
2018-02-16T14:56:56.381Z,101947.20
2018-02-16T14:59:24.851Z,101950.00
2018-02-16T15:01:54.105Z,101950.54
2018-02-16T15:04:22.534Z,101951.81
2018-02-16T15:06:51.013Z,101951.11
2018-02-16T15:09:19.483Z,101955.88
2018-02-16T15:11:47.976Z,101956.26
2018-02-16T15:14:16.416Z,101953.63
2018-02-16T15:16:45.295Z,101959.78
2018-02-16T15:19:13.778Z,101958.51
2018-02-16T15:21:42.491Z,101958.86
2018-02-16T15:24:11.549Z,101968.52
2018-02-16T15:26:40.034Z,101960.18
2018-02-16T15:29:08.632Z,101963.67
2018-02-16T15:31:37.319Z,101968.55
2018-02-16T15:34:05.812Z,101961.77
2018-02-16T15:36:34.571Z,101962.86
2018-02-16T15:39:03.463Z,101961.67
2018-02-16T15:41:31.901Z,101971.50
2018-02-16T15:44:00.320Z,101972.60
2018-02-16T15:46:28.858Z,101977.53
2018-02-16T15:48:57.272Z,101983.31
2018-02-16T15:51:25.757Z,101978.91
2018-02-16T15:53:54.751Z,101984.04
2018-02-16T15:56:23.226Z,101988.58
2018-02-16T15:58:51.702Z,101997.05
2018-02-16T16:01:20.158Z,101999.73
2018-02-16T16:03:48.613Z,101997.66
2018-02-16T16:06:17.807Z,102001.64
2018-02-16T16:08:46.319Z,101997.28
2018-02-16T16:11:14.733Z,101994.22
2018-02-16T16:13:43.287Z,102007.98
2018-02-16T16:16:11.836Z,101998.30
2018-02-16T16:18:40.423Z,102008.02
2018-02-16T16:21:08.965Z,102006.53
2018-02-16T16:23:37.653Z,102013.70
2018-02-16T16:26:06.356Z,102019.08
2018-02-16T16:28:34.925Z,102017.46
2018-02-16T16:31:07.041Z,102022.38
2018-02-16T16:33:36.296Z,102022.09
2018-02-16T16:36:05.052Z,102031.16
2018-02-16T16:38:34.063Z,102034.21
2018-02-16T16:41:04.009Z,102036.52
2018-02-16T16:43:32.624Z,102041.77
2018-02-16T16:46:01.256Z,102037.84
2018-02-16T16:48:29.775Z,102047.58
2018-02-16T16:50:58.220Z,102055.62
2018-02-16T16:53:27.098Z,102050.70
2018-02-16T16:55:55.518Z,102053.74
2018-02-16T16:58:23.957Z,102052.90
2018-02-16T17:00:53.214Z,102061.67
2018-02-16T17:03:21.663Z,102051.53
2018-02-16T17:05:50.105Z,102055.95
2018-02-16T17:08:18.596Z,102062.17
2018-02-16T17:10:47.002Z,102062.70
2018-02-16T17:13:15.492Z,102057.37
2018-02-16T17:15:44.058Z,102074.25
2018-02-16T17:18:12.641Z,102072.59
2018-02-16T17:20:41.393Z,102075.22
2018-02-16T17:23:10.833Z,102071.27
2018-02-16T17:25:39.372Z,102075.61
2018-02-16T17:28:08.062Z,102076.59
2018-02-16T17:30:37.206Z,102075.68
2018-02-16T17:33:05.749Z,102096.08
2018-02-16T17:35:34.256Z,102086.39
2018-02-16T17:38:02.809Z,102095.23
2018-02-16T17:40:31.354Z,102088.06
2018-02-16T17:42:59.808Z,102098.68
2018-02-16T17:45:28.254Z,102098.75
2018-02-16T17:47:56.789Z,102101.41
2018-02-16T17:50:25.234Z,102089.38
2018-02-16T17:55:27.143Z,102101.52
2018-02-16T17:57:55.606Z,102110.37
2018-02-16T18:00:24.273Z,102117.47
2018-02-16T18:02:52.780Z,102114.94
2018-02-16T18:05:22.088Z,102118.91
2018-02-16T18:07:50.500Z,102118.56
2018-02-16T18:10:18.971Z,102121.22
2018-02-16T18:12:47.866Z,102123.75
2018-02-16T18:15:17.472Z,102126.40
2018-02-16T18:17:46.056Z,102121.69
2018-02-16T18:20:14.709Z,102127.46
2018-02-16T18:22:43.636Z,102131.37
2018-02-16T18:25:12.221Z,102128.28
2018-02-16T18:27:41.354Z,102126.09
2018-02-16T18:30:09.953Z,102127.51
2018-02-16T18:32:38.621Z,102127.59
2018-02-16T18:35:09.450Z,102129.45
2018-02-16T18:37:38.409Z,102134.86
2018-02-16T18:40:07.107Z,102134.50
2018-02-16T18:42:36.690Z,102134.98
2018-02-16T18:45:05.175Z,102129.25
2018-02-16T18:47:34.804Z,102140.27
2018-02-16T18:50:03.788Z,102139.89
2018-02-16T18:52:32.577Z,102140.39
2018-02-16T18:55:01.082Z,102147.86
2018-02-16T18:57:30.282Z,102150.07
2018-02-16T18:59:58.734Z,102153.28
2018-02-16T19:02:27.400Z,102158.59
2018-02-16T19:04:57.400Z,102150.70
2018-02-16T19:07:26.758Z,102157.91
2018-02-16T19:09:55.202Z,102155.37
2018-02-16T19:12:23.785Z,102161.58
2018-02-16T19:14:52.232Z,102164.25
2018-02-16T19:17:20.682Z,102167.43
2018-02-16T19:19:49.488Z,102166.95
2018-02-16T19:22:17.908Z,102160.38
2018-02-16T19:24:46.396Z,102170.03
2018-02-16T19:27:14.971Z,102167.80
2018-02-16T19:29:43.378Z,102184.48
2018-02-16T19:32:11.942Z,102183.61
2018-02-16T19:34:40.732Z,102178.38
2018-02-16T19:37:10.770Z,102185.86
2018-02-16T19:39:39.326Z,102167.83
2018-02-16T19:42:08.027Z,102177.45
2018-02-16T19:44:36.483Z,102174.89
2018-02-16T19:47:04.958Z,102171.07
2018-02-16T19:49:34.673Z,102167.60
2018-02-16T19:52:03.171Z,102172.46
2018-02-16T19:54:31.844Z,102175.94
2018-02-16T19:57:00.728Z,102168.95
2018-02-16T19:59:29.350Z,102175.98
2018-02-16T20:01:57.829Z,102183.56
2018-02-16T20:04:27.217Z,102180.50
2018-02-16T20:06:55.705Z,102182.69
2018-02-16T20:09:24.154Z,102176.89
2018-02-16T20:11:52.628Z,102186.14
2018-02-16T20:14:21.148Z,102184.39
2018-02-16T20:16:49.599Z,102184.31
2018-02-16T20:19:18.335Z,102189.60
2018-02-16T20:21:46.857Z,102188.26
2018-02-16T20:24:15.304Z,102179.53
2018-02-16T20:26:44.823Z,102190.09
2018-02-16T20:29:13.241Z,102188.66
2018-02-16T20:31:41.800Z,102185.16
2018-02-16T20:34:10.594Z,102191.31
2018-02-16T20:36:39.172Z,102193.50
2018-02-16T20:39:07.648Z,102188.23
2018-02-16T20:41:36.287Z,102191.77
2018-02-16T20:44:04.835Z,102198.30
2018-02-16T20:46:34.098Z,102196.16
2018-02-16T20:49:03.771Z,102197.06
2018-02-16T20:51:32.624Z,102199.30
2018-02-16T20:54:01.132Z,102205.98
2018-02-16T20:56:29.737Z,102205.06
2018-02-16T20:58:58.213Z,102209.97
2018-02-16T21:01:26.935Z,102207.38
2018-02-16T21:03:56.390Z,102211.92
2018-02-16T21:06:25.603Z,102218.40
2018-02-16T21:08:57.101Z,102216.70
2018-02-16T21:11:26.087Z,102215.77
2018-02-16T21:13:54.980Z,102215.39
2018-02-16T21:16:24.380Z,102215.38
2018-02-16T21:18:55.536Z,102210.55
2018-02-16T21:21:24.426Z,102219.87
2018-02-16T21:23:52.923Z,102220.39
2018-02-16T21:26:22.196Z,102220.04
2018-02-16T21:28:50.601Z,102222.75
2018-02-16T21:31:19.082Z,102222.42
2018-02-16T21:33:48.306Z,102221.59
2018-02-16T21:36:16.767Z,102224.32
2018-02-16T21:38:45.326Z,102222.11
2018-02-16T21:41:14.406Z,102223.84
2018-02-16T21:43:43.210Z,102226.53
2018-02-16T21:46:11.849Z,102231.44
2018-02-16T21:48:40.813Z,102238.13
2018-02-16T21:51:09.606Z,102231.56
2018-02-16T21:53:38.595Z,102234.62
2018-02-16T21:56:07.769Z,102242.53
2018-02-16T21:58:36.540Z,102242.45
2018-02-16T22:01:05.038Z,102241.56
2018-02-16T22:03:35.157Z,102240.63
2018-02-16T22:06:03.919Z,102238.41
2018-02-16T22:08:33.345Z,102240.70
2018-02-16T22:11:01.992Z,102246.50
2018-02-16T22:13:30.429Z,102250.45
2018-02-16T22:15:58.853Z,102245.62
2018-02-16T22:18:27.617Z,102247.78
2018-02-16T22:20:56.077Z,102251.77
2018-02-16T22:23:24.512Z,102245.50
2018-02-16T22:25:53.717Z,102254.66
2018-02-16T22:28:22.125Z,102258.94
2018-02-16T22:30:50.533Z,102257.08
2018-02-16T22:33:19.962Z,102254.38
2018-02-16T22:35:49.329Z,102256.04
2018-02-16T22:38:17.785Z,102259.08
2018-02-16T22:40:47.058Z,102263.94
2018-02-16T22:43:15.468Z,102259.95
2018-02-16T22:45:44.021Z,102264.73
2018-02-16T22:48:12.821Z,102261.14
2018-02-16T22:50:41.414Z,102260.19
2018-02-16T22:53:10.019Z,102264.55
2018-02-16T22:55:39.119Z,102267.89
2018-02-16T22:58:07.687Z,102269.23
2018-02-16T23:00:36.244Z,102265.66
2018-02-16T23:03:06.359Z,102266.55
2018-02-16T23:05:34.945Z,102269.19
2018-02-16T23:08:03.395Z,102267.44
2018-02-16T23:10:32.755Z,102265.12
2018-02-16T23:13:01.256Z,102266.90
2018-02-16T23:15:29.698Z,102262.92
2018-02-16T23:17:58.240Z,102262.14
2018-02-16T23:20:26.777Z,102265.18
2018-02-16T23:22:55.209Z,102256.78
2018-02-16T23:25:24.160Z,102264.44
2018-02-16T23:27:53.017Z,102263.91
2018-02-16T23:30:21.460Z,102260.80
2018-02-16T23:32:49.962Z,102262.12
2018-02-16T23:35:18.392Z,102263.50
2018-02-16T23:37:46.839Z,102259.04
2018-02-16T23:40:15.324Z,102269.27
2018-02-16T23:42:43.803Z,102264.56
2018-02-16T23:45:12.491Z,102270.75
2018-02-16T23:47:41.346Z,102265.88
2018-02-16T23:50:09.858Z,102270.14
2018-02-16T23:52:38.335Z,102266.25
2018-02-16T23:55:07.156Z,102270.61
2018-02-16T23:57:36.409Z,102267.12
